createdAt,value
2023-12-18T00:00:53.121Z,100293.78
2023-12-18T00:03:19.930Z,100289.78
2023-12-18T00:05:46.729Z,100275.78
2023-12-18T00:08:13.489Z,100276.03
2023-12-18T00:13:11.408Z,100279.28
2023-12-18T00:15:38.175Z,100268.34
2023-12-18T00:18:05.383Z,100254.97
2023-12-18T00:20:32.156Z,100256.00
2023-12-18T00:22:59.685Z,100256.59
2023-12-18T00:25:26.546Z,100256.59
2023-12-18T00:27:53.393Z,100251.78
2023-12-18T00:30:20.412Z,100254.09
2023-12-18T00:32:47.192Z,100258.06
2023-12-18T00:35:13.992Z,100245.16
2023-12-18T00:37:41.025Z,100239.16
2023-12-18T00:40:08.488Z,100237.56
2023-12-18T00:42:35.262Z,100239.47
2023-12-18T00:45:02.086Z,100249.34
2023-12-18T00:47:29.096Z,100247.16
2023-12-18T00:49:56.003Z,100241.00
2023-12-18T00:52:22.818Z,100246.06
2023-12-18T00:54:49.572Z,100235.41
2023-12-18T00:57:16.344Z,100240.53
2023-12-18T01:12:41.564Z,100232.53
2023-12-18T01:15:08.738Z,100237.59
2023-12-18T01:17:36.698Z,100234.44
2023-12-18T01:20:05.300Z,100228.81
2023-12-18T01:22:32.115Z,100233.78
2023-12-18T01:24:58.844Z,100231.22
2023-12-18T01:27:26.064Z,100230.13
2023-12-18T01:46:00.377Z,100226.25
2023-12-18T01:51:16.656Z,100213.91
2023-12-18T01:53:46.729Z,100210.91
2023-12-18T01:56:15.861Z,100206.31
2023-12-18T01:58:46.214Z,100210.88
2023-12-18T02:01:14.040Z,100205.19
2023-12-18T02:03:42.106Z,100199.31
2023-12-18T02:06:08.979Z,100195.03
2023-12-18T02:08:36.402Z,100190.22
2023-12-18T02:11:03.527Z,100190.28
2023-12-18T02:13:30.253Z,100184.06
2023-12-18T02:15:58.331Z,100190.03
2023-12-18T02:18:25.222Z,100191.38
2023-12-18T02:20:52.149Z,100192.22
2023-12-18T02:23:18.968Z,100187.13
2023-12-18T02:25:45.723Z,100186.31
2023-12-18T02:28:13.033Z,100196.81
2023-12-18T02:30:39.957Z,100181.47
2023-12-18T02:33:06.978Z,100181.19
2023-12-18T02:35:33.752Z,100182.50
2023-12-18T02:38:00.622Z,100187.16
2023-12-18T02:40:27.745Z,100182.38
2023-12-18T02:42:54.690Z,100176.88
2023-12-18T02:48:00.439Z,100168.78
2023-12-18T02:50:27.118Z,100173.88
2023-12-18T02:52:53.790Z,100174.47
2023-12-18T02:55:20.449Z,100163.19
2023-12-18T02:57:47.382Z,100165.59
2023-12-18T03:00:14.440Z,100162.06
2023-12-18T03:05:13.513Z,100155.28
2023-12-18T03:07:40.482Z,100151.25
2023-12-18T03:10:07.927Z,100152.63
2023-12-18T03:12:34.694Z,100149.09
2023-12-18T03:20:10.627Z,100148.78
2023-12-18T03:22:37.336Z,100137.78
2023-12-18T03:27:40.724Z,100145.94
2023-12-18T03:32:43.666Z,100134.06
2023-12-18T03:37:45.522Z,100131.59
2023-12-18T03:40:12.382Z,100133.97
2023-12-18T03:42:40.244Z,100134.50
2023-12-18T03:45:07.558Z,100131.53
2023-12-18T03:47:34.261Z,100132.31
2023-12-18T03:50:01.042Z,100126.94
2023-12-18T03:52:27.778Z,100129.09
2023-12-18T03:54:54.517Z,100127.44
2023-12-18T04:00:09.481Z,100136.03
2023-12-18T04:02:36.776Z,100133.56
2023-12-18T04:07:37.176Z,100121.16
2023-12-18T04:10:04.103Z,100120.63
2023-12-18T04:12:31.046Z,100125.53
2023-12-18T04:14:57.755Z,100122.63
2023-12-18T04:17:24.503Z,100120.69
2023-12-18T04:19:51.366Z,100119.09
2023-12-18T04:24:49.446Z,100126.66
2023-12-18T04:27:16.685Z,100122.00
2023-12-18T04:29:43.477Z,100127.63
2023-12-18T04:32:10.172Z,100132.13
2023-12-18T04:34:37.046Z,100136.16
2023-12-18T04:39:41.587Z,100129.00
2023-12-18T04:42:08.370Z,100122.97
2023-12-18T04:44:35.037Z,100128.44
2023-12-18T04:47:02.749Z,100124.69
2023-12-18T04:49:29.680Z,100123.91
2023-12-18T04:51:56.597Z,100123.38
2023-12-18T04:54:23.420Z,100120.09
2023-12-18T04:56:50.165Z,100123.25
2023-12-18T04:59:16.921Z,100128.06
2023-12-18T05:01:44.124Z,100125.81
2023-12-18T05:04:10.864Z,100128.03
2023-12-18T05:06:37.885Z,100138.28
2023-12-18T05:09:04.681Z,100129.72
2023-12-18T05:11:31.388Z,100129.03
2023-12-18T05:13:58.100Z,100134.47
2023-12-18T05:16:24.819Z,100136.56
2023-12-18T05:21:30.328Z,100134.75
2023-12-18T05:23:57.231Z,100136.88
2023-12-18T05:26:24.072Z,100135.28
2023-12-18T05:28:50.753Z,100124.22
2023-12-18T05:31:20.074Z,100125.84
2023-12-18T05:33:47.039Z,100118.34
2023-12-18T05:36:13.867Z,100115.03
2023-12-18T05:38:40.572Z,100115.28
2023-12-18T05:41:07.251Z,100112.31
2023-12-18T05:43:33.993Z,100122.56
2023-12-18T05:46:00.653Z,100117.22
2023-12-18T05:48:27.496Z,100114.97
2023-12-18T05:50:55.035Z,100119.72
2023-12-18T05:53:22.529Z,100113.53
2023-12-18T05:55:49.567Z,100118.16
2023-12-18T06:00:54.106Z,100122.13
2023-12-18T06:03:20.901Z,100130.16
2023-12-18T06:05:47.785Z,100130.84
2023-12-18T06:08:14.502Z,100127.59
2023-12-18T06:13:18.999Z,100134.47
2023-12-18T06:15:45.733Z,100125.97
2023-12-18T06:20:43.816Z,100139.59
2023-12-18T06:23:10.513Z,100138.56
2023-12-18T06:25:37.181Z,100139.34
2023-12-18T06:28:04.072Z,100145.66
2023-12-18T06:30:30.847Z,100137.47
2023-12-18T06:32:57.721Z,100153.03
2023-12-18T06:35:24.468Z,100139.97
2023-12-18T06:37:51.150Z,100145.75
2023-12-18T06:40:17.840Z,100138.56
2023-12-18T06:42:44.893Z,100146.06
2023-12-18T06:45:12.089Z,100142.25
2023-12-18T06:47:38.838Z,100150.19
2023-12-18T06:50:06.103Z,100144.78
2023-12-18T06:52:32.825Z,100156.25
2023-12-18T06:54:59.946Z,100156.81
2023-12-18T06:57:26.814Z,100159.88
2023-12-18T06:59:53.636Z,100157.41
2023-12-18T07:02:20.411Z,100153.13
2023-12-18T07:04:47.151Z,100156.47
2023-12-18T07:07:13.883Z,100156.44
2023-12-18T07:09:40.718Z,100149.25
2023-12-18T07:14:40.231Z,100160.78
2023-12-18T07:17:06.918Z,100167.19
2023-12-18T07:19:33.714Z,100172.28
2023-12-18T07:22:01.429Z,100164.88
2023-12-18T07:24:29.224Z,100173.19
2023-12-18T07:26:55.922Z,100180.84
2023-12-18T07:29:22.628Z,100165.50
2023-12-18T07:31:49.593Z,100175.47
2023-12-18T07:34:16.974Z,100178.06
2023-12-18T07:36:43.932Z,100183.44
2023-12-18T07:39:10.713Z,100188.13
2023-12-18T07:41:37.471Z,100189.81
2023-12-18T07:44:04.233Z,100181.91
2023-12-18T07:46:30.940Z,100180.63
2023-12-18T07:48:57.906Z,100188.72
2023-12-18T07:51:24.701Z,100190.03
2023-12-18T07:53:51.566Z,100193.03
2023-12-18T07:56:18.235Z,100192.16
2023-12-18T07:58:44.929Z,100192.56
2023-12-18T08:01:11.798Z,100195.69
2023-12-18T08:03:38.736Z,100191.00
2023-12-18T08:06:05.807Z,100195.53
2023-12-18T08:08:32.519Z,100187.19
2023-12-18T08:10:59.251Z,100189.22
2023-12-18T08:13:26.171Z,100189.13
2023-12-18T08:15:53.494Z,100196.84
2023-12-18T08:20:57.409Z,100188.25
2023-12-18T08:23:24.140Z,100195.63
2023-12-18T08:25:50.847Z,100184.53
2023-12-18T08:28:17.634Z,100184.59
2023-12-18T08:30:45.627Z,100184.94
2023-12-18T08:33:12.673Z,100180.47
2023-12-18T08:35:39.494Z,100177.13
2023-12-18T08:38:06.703Z,100183.22
2023-12-18T08:43:13.402Z,100181.19
2023-12-18T08:45:40.076Z,100181.75
2023-12-18T08:48:07.617Z,100192.81
2023-12-18T08:50:34.482Z,100189.59
2023-12-18T08:53:01.182Z,100191.22
2023-12-18T08:55:27.857Z,100177.44
2023-12-18T08:57:54.617Z,100182.97
2023-12-18T09:00:21.407Z,100174.91
2023-12-18T09:02:48.173Z,100171.97
2023-12-18T09:05:16.553Z,100171.13
2023-12-18T09:07:43.406Z,100170.06
2023-12-18T09:10:10.227Z,100173.00
2023-12-18T09:12:37.048Z,100170.53
2023-12-18T09:15:05.420Z,100173.44
2023-12-18T09:17:32.141Z,100175.69
2023-12-18T09:19:59.468Z,100163.28
2023-12-18T09:22:26.275Z,100163.38
2023-12-18T09:24:52.982Z,100160.53
2023-12-18T09:27:19.861Z,100166.94
2023-12-18T09:29:47.137Z,100153.66
2023-12-18T09:32:13.995Z,100150.38
2023-12-18T09:34:41.092Z,100139.75
2023-12-18T09:42:17.681Z,100136.19
2023-12-18T09:44:48.698Z,100132.25
2023-12-18T09:49:48.231Z,100134.94
2023-12-18T09:52:15.395Z,100130.72
2023-12-18T09:54:44.251Z,100133.97
2023-12-18T09:57:13.984Z,100127.75
2023-12-18T09:59:40.856Z,100122.63
2023-12-18T10:02:09.657Z,100123.41
2023-12-18T10:04:36.363Z,100125.31
2023-12-18T10:09:42.285Z,100128.06
2023-12-18T10:12:09.431Z,100127.78
2023-12-18T10:14:36.200Z,100121.03
2023-12-18T10:19:44.724Z,100110.47
2023-12-18T10:22:11.602Z,100104.50
2023-12-18T10:24:42.821Z,100113.41
2023-12-18T10:27:09.948Z,100105.50
2023-12-18T10:29:36.741Z,100101.69
2023-12-18T10:32:04.181Z,100094.16
2023-12-18T10:34:33.701Z,100094.16
2023-12-18T10:37:01.334Z,100089.22
2023-12-18T10:39:30.877Z,100085.91
2023-12-18T10:42:00.898Z,100084.06
2023-12-18T10:44:30.977Z,100075.63
2023-12-18T10:47:00.078Z,100072.38
2023-12-18T10:49:30.278Z,100070.44
2023-12-18T10:51:57.927Z,100066.94
2023-12-18T10:54:25.654Z,100070.19
2023-12-18T10:56:54.015Z,100061.25
2023-12-18T11:01:54.024Z,100062.34
2023-12-18T11:04:20.896Z,100060.91
2023-12-18T11:06:48.698Z,100067.66
2023-12-18T11:09:15.502Z,100058.16
2023-12-18T11:11:43.211Z,100055.69
2023-12-18T11:14:25.241Z,100054.38
2023-12-18T11:19:47.035Z,100037.00
2023-12-18T11:22:17.087Z,100027.19
2023-12-18T11:24:46.655Z,100020.59
2023-12-18T11:27:14.444Z,100018.97
2023-12-18T11:29:48.258Z,100014.81
2023-12-18T11:32:41.392Z,100014.19
2023-12-18T11:35:12.700Z,100003.63
2023-12-18T11:37:46.228Z,99995.63
2023-12-18T11:40:32.927Z,99996.25
2023-12-18T11:43:00.100Z,99998.66
2023-12-18T11:45:27.434Z,99996.19
2023-12-18T11:48:01.203Z,99991.78
2023-12-18T11:50:33.354Z,99996.63
2023-12-18T11:53:01.740Z,99992.31
2023-12-18T11:55:41.175Z,99982.28
2023-12-18T11:58:09.054Z,99980.81
2023-12-18T12:00:37.016Z,99975.06
2023-12-18T12:03:05.381Z,99974.03
2023-12-18T12:05:35.586Z,99962.97
2023-12-18T12:08:02.445Z,99952.88
2023-12-18T12:10:29.439Z,99964.50
2023-12-18T12:12:57.557Z,99958.50
2023-12-18T12:15:26.083Z,99946.56
2023-12-18T12:18:01.587Z,99948.41
2023-12-18T12:20:28.423Z,99947.31
2023-12-18T12:22:55.121Z,99939.69
2023-12-18T12:25:21.904Z,99934.84
2023-12-18T12:27:48.629Z,99934.78
2023-12-18T12:30:15.825Z,99930.69
2023-12-18T12:32:42.617Z,99923.28
2023-12-18T12:35:09.529Z,99919.16
2023-12-18T12:37:36.282Z,99919.09
2023-12-18T12:40:08.118Z,99924.44
2023-12-18T12:42:39.745Z,99916.66
2023-12-18T12:47:41.230Z,99913.94
2023-12-18T12:50:08.726Z,99923.16
2023-12-18T12:52:39.269Z,99916.94
2023-12-18T12:55:07.292Z,99915.34
2023-12-18T12:57:34.461Z,99920.16
2023-12-18T13:02:39.007Z,99916.97
2023-12-18T13:05:10.623Z,99903.72
2023-12-18T13:07:37.573Z,99910.75
2023-12-18T13:10:04.818Z,99911.97
2023-12-18T13:12:31.640Z,99905.94
2023-12-18T13:14:59.374Z,99898.41
2023-12-18T13:17:27.774Z,99895.88
2023-12-18T13:19:55.094Z,99894.19
2023-12-18T13:22:22.041Z,99887.38
2023-12-18T13:24:48.839Z,99885.44
2023-12-18T13:27:16.064Z,99883.34
2023-12-18T13:29:43.454Z,99884.03
2023-12-18T13:32:11.281Z,99882.41
2023-12-18T13:34:38.252Z,99885.81
2023-12-18T13:37:07.807Z,99880.28
2023-12-18T13:39:34.655Z,99888.00
2023-12-18T13:42:01.874Z,99874.94
2023-12-18T13:44:30.178Z,99874.63
2023-12-18T13:46:56.906Z,99875.09
2023-12-18T13:49:23.927Z,99873.69
2023-12-18T13:51:51.336Z,99870.69
2023-12-18T13:54:19.517Z,99864.75
2023-12-18T13:56:46.449Z,99862.16
2023-12-18T13:59:13.151Z,99864.56
2023-12-18T14:04:13.427Z,99867.47
2023-12-18T14:06:40.412Z,99849.75
2023-12-18T14:09:07.165Z,99854.38
2023-12-18T14:14:05.152Z,99849.56
2023-12-18T14:16:32.015Z,99850.19
2023-12-18T14:18:59.087Z,99849.38
2023-12-18T14:21:27.324Z,99846.16
2023-12-18T14:23:54.362Z,99850.09
2023-12-18T14:26:21.196Z,99848.09
2023-12-18T14:28:48.382Z,99850.75
2023-12-18T14:31:16.095Z,99858.28
2023-12-18T14:33:43.354Z,99852.69
2023-12-18T14:36:10.328Z,99852.09
2023-12-18T14:38:37.070Z,99856.72
2023-12-18T14:41:05.161Z,99851.50
2023-12-18T14:43:32.779Z,99856.03
2023-12-18T14:45:59.831Z,99848.59
2023-12-18T14:48:34.881Z,99850.47
2023-12-18T14:51:02.826Z,99841.25
2023-12-18T14:53:29.890Z,99836.81
2023-12-18T14:55:57.373Z,99843.03
2023-12-18T15:01:01.795Z,99835.41
2023-12-18T15:03:28.701Z,99832.00
2023-12-18T15:05:55.709Z,99830.19
2023-12-18T15:08:22.566Z,99831.50
2023-12-18T15:10:49.378Z,99826.16
2023-12-18T15:13:16.118Z,99829.38
2023-12-18T15:15:42.852Z,99835.50
2023-12-18T15:18:09.721Z,99823.94
2023-12-18T15:20:36.520Z,99826.28
2023-12-18T15:23:03.345Z,99815.84
2023-12-18T15:25:30.180Z,99820.44
2023-12-18T15:27:57.713Z,99822.50
2023-12-18T15:30:24.907Z,99826.16
2023-12-18T15:32:51.797Z,99827.81
2023-12-18T15:35:21.371Z,99820.44
2023-12-18T15:37:48.742Z,99817.53
2023-12-18T15:40:15.765Z,99816.06
2023-12-18T15:45:22.249Z,99811.25
2023-12-18T15:47:49.260Z,99805.59
2023-12-18T15:50:17.466Z,99814.53
2023-12-18T15:52:44.711Z,99804.22
2023-12-18T15:55:11.536Z,99802.16
2023-12-18T15:57:38.377Z,99800.59
2023-12-18T16:00:06.314Z,99800.78
2023-12-18T16:02:34.688Z,99801.50
2023-12-18T16:05:02.573Z,99799.25
2023-12-18T16:07:30.490Z,99799.47
2023-12-18T16:09:57.220Z,99790.19
2023-12-18T16:12:24.010Z,99794.19
2023-12-18T16:14:50.776Z,99795.63
2023-12-18T16:17:17.490Z,99795.63
2023-12-18T16:19:44.295Z,99797.19
2023-12-18T16:22:10.971Z,99792.38
2023-12-18T16:24:37.952Z,99795.56
2023-12-18T16:29:42.071Z,99805.53
2023-12-18T16:32:12.595Z,99799.53
2023-12-18T16:34:41.274Z,99795.56
2023-12-18T16:37:09.715Z,99802.47
2023-12-18T16:39:45.774Z,99804.00
2023-12-18T16:42:13.135Z,99804.00
2023-12-18T16:44:40.882Z,99799.44
2023-12-18T16:47:08.703Z,99799.69
2023-12-18T16:49:35.567Z,99794.06
2023-12-18T16:52:02.461Z,99795.66
2023-12-18T16:54:29.238Z,99792.47
2023-12-18T16:56:55.968Z,99790.22
2023-12-18T17:01:53.953Z,99782.47
2023-12-18T17:04:20.670Z,99787.66
2023-12-18T17:09:19.181Z,99781.59
2023-12-18T17:11:45.987Z,99786.22
2023-12-18T17:14:13.795Z,99787.06
2023-12-18T17:16:41.538Z,99787.06
2023-12-18T17:19:08.333Z,99795.69
2023-12-18T17:21:35.666Z,99795.47
2023-12-18T17:24:03.599Z,99782.09
2023-12-18T17:26:30.401Z,99781.19
2023-12-18T17:31:31.914Z,99777.84
2023-12-18T17:33:58.985Z,99776.53
2023-12-18T17:36:27.385Z,99769.00
2023-12-18T17:38:54.854Z,99770.25
2023-12-18T17:41:21.630Z,99764.66
2023-12-18T17:46:26.392Z,99774.78
2023-12-18T17:48:55.432Z,99772.38
2023-12-18T17:51:22.336Z,99773.19
2023-12-18T17:53:49.026Z,99770.72
2023-12-18T17:56:16.111Z,99774.13
2023-12-18T17:58:42.854Z,99784.16
2023-12-18T18:01:13.524Z,99776.06
2023-12-18T18:03:40.334Z,99772.22
2023-12-18T18:06:07.491Z,99764.16
2023-12-18T18:08:34.294Z,99761.09
2023-12-18T18:11:01.482Z,99760.19
2023-12-18T18:13:28.128Z,99758.50
2023-12-18T18:15:56.031Z,99759.75
2023-12-18T18:18:23.056Z,99770.00
2023-12-18T18:20:49.858Z,99774.09
2023-12-18T18:23:16.594Z,99778.81
2023-12-18T18:25:43.581Z,99775.91
2023-12-18T18:28:10.994Z,99776.03
2023-12-18T18:30:37.955Z,99777.66
2023-12-18T18:33:06.386Z,99771.75
2023-12-18T18:35:33.986Z,99774.47
2023-12-18T18:38:00.884Z,99766.41
2023-12-18T18:40:27.540Z,99767.81
2023-12-18T18:42:54.314Z,99777.53
2023-12-18T18:50:29.098Z,99775.59
2023-12-18T18:52:56.293Z,99777.19
2023-12-18T18:55:23.091Z,99783.28
2023-12-18T18:57:49.877Z,99783.66
2023-12-18T19:00:17.461Z,99794.47
2023-12-18T19:02:44.280Z,99790.38
2023-12-18T19:05:11.103Z,99801.06
2023-12-18T19:07:37.980Z,99793.00
2023-12-18T19:12:41.258Z,99791.81
2023-12-18T19:15:11.835Z,99797.22
2023-12-18T19:20:19.363Z,99796.91
2023-12-18T19:22:47.096Z,99793.22
2023-12-18T19:25:14.662Z,99805.38
2023-12-18T19:27:42.365Z,99788.38
2023-12-18T19:30:10.041Z,99800.47
2023-12-18T19:32:36.928Z,99792.97
2023-12-18T19:35:04.034Z,99809.38
2023-12-18T19:37:30.790Z,99794.50
2023-12-18T19:39:57.560Z,99793.13
2023-12-18T19:42:24.433Z,99788.66
2023-12-18T19:44:51.312Z,99802.72
2023-12-18T19:47:18.552Z,99802.41
2023-12-18T19:49:45.380Z,99808.94
2023-12-18T19:52:12.147Z,99807.28
2023-12-18T19:54:38.991Z,99795.13
2023-12-18T19:59:44.251Z,99787.78
2023-12-18T20:02:10.987Z,99780.44
2023-12-18T20:04:37.831Z,99774.97
2023-12-18T20:07:05.421Z,99780.34
2023-12-18T20:09:32.237Z,99778.63
2023-12-18T20:11:58.983Z,99778.56
2023-12-18T20:14:26.751Z,99794.13
2023-12-18T20:16:53.475Z,99779.16
2023-12-18T20:19:20.469Z,99777.72
2023-12-18T20:21:51.903Z,99773.09
2023-12-18T20:24:19.115Z,99777.47
2023-12-18T20:29:17.229Z,99765.56
2023-12-18T20:34:21.997Z,99777.16
2023-12-18T20:36:49.021Z,99777.72
2023-12-18T20:39:16.430Z,99767.72
2023-12-18T20:41:44.123Z,99772.28
2023-12-18T20:44:10.829Z,99776.16
2023-12-18T20:46:37.736Z,99764.66
2023-12-18T20:49:05.449Z,99760.34
2023-12-18T20:51:41.803Z,99754.53
2023-12-18T20:54:09.251Z,99754.56
2023-12-18T20:56:36.150Z,99738.78
2023-12-18T20:59:02.928Z,99732.28
2023-12-18T21:01:29.917Z,99728.94
2023-12-18T21:06:34.921Z,99731.59
2023-12-18T21:09:01.616Z,99737.66
2023-12-18T21:13:59.557Z,99745.88
2023-12-18T21:18:57.774Z,99743.59
2023-12-18T21:21:24.691Z,99740.00
2023-12-18T21:26:22.747Z,99734.59
2023-12-18T21:28:51.146Z,99721.91
2023-12-18T21:31:18.067Z,99724.56
2023-12-18T21:33:44.998Z,99715.16
2023-12-18T21:36:14.423Z,99714.88
2023-12-18T21:38:41.511Z,99712.19
2023-12-18T21:41:08.196Z,99691.66
2023-12-18T21:43:34.944Z,99701.41
2023-12-18T21:46:01.674Z,99699.50
2023-12-18T21:48:28.604Z,99710.59
2023-12-18T21:55:58.416Z,99703.50
2023-12-18T21:58:25.072Z,99714.75
2023-12-18T22:00:52.306Z,99711.81
2023-12-18T22:03:19.990Z,99705.38
2023-12-18T22:05:46.916Z,99703.13
2023-12-18T22:08:13.752Z,99705.88
2023-12-18T22:10:40.660Z,99710.81
2023-12-18T22:13:07.450Z,99733.25
2023-12-18T22:20:47.728Z,99770.72
2023-12-18T22:23:16.538Z,99770.47
2023-12-18T22:25:43.926Z,99751.06
2023-12-18T22:28:10.676Z,99745.97
2023-12-18T22:30:37.502Z,99738.44
2023-12-18T22:33:04.563Z,99731.66
2023-12-18T22:35:31.340Z,99721.09
2023-12-18T22:37:58.371Z,99705.72
2023-12-18T22:40:25.071Z,99707.06
2023-12-18T22:42:51.828Z,99696.09
2023-12-18T22:45:18.596Z,99690.50
2023-12-18T22:47:45.343Z,99681.94
2023-12-18T22:50:13.997Z,99678.41
2023-12-18T22:55:12.205Z,99657.69
2023-12-18T22:57:38.894Z,99658.84
2023-12-18T23:00:07.776Z,99649.47
2023-12-18T23:02:34.507Z,99634.91
2023-12-18T23:05:01.316Z,99629.59
2023-12-18T23:07:28.539Z,99634.72
2023-12-18T23:09:56.603Z,99630.41
2023-12-18T23:12:23.394Z,99619.91
2023-12-18T23:14:50.095Z,99612.63
2023-12-18T23:17:16.963Z,99617.72
2023-12-18T23:19:43.806Z,99622.78
2023-12-18T23:22:11.735Z,99620.28
2023-12-18T23:24:38.618Z,99619.53
2023-12-18T23:27:05.791Z,99623.78
2023-12-18T23:29:32.777Z,99609.28
2023-12-18T23:31:59.512Z,99604.50
2023-12-18T23:34:26.639Z,99594.72
2023-12-18T23:36:53.709Z,99592.53
2023-12-18T23:42:00.100Z,99590.38
2023-12-18T23:44:26.919Z,99609.81
2023-12-18T23:46:53.845Z,99614.69
2023-12-18T23:49:20.697Z,99618.47
2023-12-18T23:51:47.552Z,99594.84
2023-12-18T23:54:14.263Z,99589.34
2023-12-18T23:56:41.016Z,99598.03
2023-12-18T23:59:07.762Z,99591.03
